Time,TemperatureF,DewpointF,PressureIn,WindDirection,WindDirectionDegrees,WindSpeedMPH,WindSpeedGustMPH,Humidity,HourlyPrecipIn,Conditions,Clouds,dailyrainin,SolarRadiationWatts/m^2,SoftwareType,DateUTC
2013-08-31 00:03:00,46.0,46.0,-100.00,NNW,330,4.0,5.0,100,0.00,,,0.07,0.000000,,2013-08-31 08:03:00,
2013-08-31 00:12:00,46.0,46.0,-100.00,NNW,330,4.0,5.0,100,0.00,,,0.07,0.000000,,2013-08-31 08:12:00,
2013-08-31 00:22:00,46.0,46.0,-100.00,NNW,330,4.0,5.0,100,0.00,,,0.07,0.000000,,2013-08-31 08:22:00,
2013-08-31 00:52:00,46.0,42.0,-100.00,WNW,302,4.0,6.0,85,0.00,,,0.06,0.000000,,2013-08-31 08:52:00,
2013-08-31 01:02:00,46.0,42.0,-100.00,WNW,302,4.0,6.0,85,0.00,,,0.06,0.000000,,2013-08-31 09:02:00,
2013-08-31 01:12:00,46.0,42.0,-100.00,WNW,302,4.0,6.0,85,0.00,,,0.06,0.000000,,2013-08-31 09:12:00,
2013-08-31 01:23:00,46.0,42.0,-100.00,WNW,302,4.0,6.0,85,0.00,,,0.06,0.000000,,2013-08-31 09:23:00,
2013-08-31 01:53:00,46.0,41.0,-100.00,NW,321,5.0,8.0,82,0.00,,,0.06,0.000000,,2013-08-31 09:53:00,
2013-08-31 02:03:00,46.0,41.0,-100.00,NW,321,5.0,8.0,82,0.00,,,0.06,0.000000,,2013-08-31 10:03:00,
2013-08-31 02:12:00,46.0,41.0,-100.00,NW,321,5.0,8.0,82,0.00,,,0.06,0.000000,,2013-08-31 10:12:00,
2013-08-31 02:23:00,46.0,41.0,-100.00,NW,321,5.0,8.0,82,0.00,,,0.06,0.000000,,2013-08-31 10:23:00,
2013-08-31 02:53:00,44.0,38.0,-100.00,NW,325,2.0,6.0,78,0.00,,,0.05,0.000000,,2013-08-31 10:53:00,
2013-08-31 03:02:00,44.0,38.0,-100.00,NW,325,2.0,6.0,78,0.00,,,0.05,0.000000,,2013-08-31 11:02:00,
2013-08-31 03:12:00,44.0,38.0,-100.00,NW,325,2.0,6.0,78,0.00,,,0.05,0.000000,,2013-08-31 11:12:00,
2013-08-31 03:21:00,44.0,38.0,-100.00,NW,325,2.0,6.0,78,0.00,,,0.05,0.000000,,2013-08-31 11:21:00,
2013-08-31 03:52:00,39.0,36.0,-100.00,WSW,253,1.0,5.0,88,0.00,,,0.05,0.000000,,2013-08-31 11:52:00,
2013-08-31 04:02:00,39.0,36.0,-100.00,WSW,253,1.0,5.0,88,0.00,,,0.05,0.000000,,2013-08-31 12:02:00,
2013-08-31 04:11:00,39.0,36.0,-100.00,WSW,253,1.0,5.0,88,0.00,,,0.05,0.000000,,2013-08-31 12:11:00,
2013-08-31 04:21:00,39.0,36.0,-100.00,WSW,253,1.0,5.0,88,0.00,,,0.05,0.000000,,2013-08-31 12:21:00,
2013-08-31 04:52:00,36.0,36.0,-100.00,SE,124,0.0,3.0,100,0.00,,,0.05,0.000000,,2013-08-31 12:52:00,
2013-08-31 05:01:00,36.0,36.0,-100.00,SE,124,0.0,3.0,100,0.00,,,0.05,0.000000,,2013-08-31 13:01:00,
2013-08-31 05:11:00,36.0,36.0,-100.00,SE,124,0.0,3.0,100,0.00,,,0.05,0.000000,,2013-08-31 13:11:00,
2013-08-31 05:22:00,36.0,36.0,-100.00,SE,124,0.0,3.0,100,0.00,,,0.05,0.000000,,2013-08-31 13:22:00,
2013-08-31 05:52:00,39.0,39.0,-100.00,North,350,2.0,4.0,100,0.00,,,0.05,0.000000,,2013-08-31 13:52:00,
2013-08-31 06:02:00,39.0,39.0,-100.00,North,350,2.0,4.0,100,0.00,,,0.05,0.000000,,2013-08-31 14:02:00,
2013-08-31 06:11:00,39.0,39.0,-100.00,North,350,2.0,4.0,100,0.00,,,0.05,0.000000,,2013-08-31 14:11:00,
2013-08-31 06:21:00,39.0,39.0,-100.00,North,350,2.0,4.0,100,0.00,,,0.05,0.000000,,2013-08-31 14:21:00,
2013-08-31 06:52:00,41.0,34.0,-100.00,NNW,346,3.0,5.0,77,0.00,,,0.02,1.000000,,2013-08-31 14:52:00,
2013-08-31 07:01:00,41.0,34.0,-100.00,NNW,346,3.0,5.0,77,0.00,,,0.02,1.000000,,2013-08-31 15:01:00,
2013-08-31 07:11:00,41.0,34.0,-100.00,NNW,346,3.0,5.0,77,0.00,,,0.02,1.000000,,2013-08-31 15:11:00,
2013-08-31 07:22:00,41.0,34.0,-100.00,NNW,346,3.0,5.0,77,0.00,,,0.02,1.000000,,2013-08-31 15:22:00,
2013-08-31 07:25:00,39.0,35.0,-100.00,SE,135,2.0,5.0,84,0.00,,,0.01,13.000000,,2013-08-31 15:25:00,
2013-08-31 07:55:00,39.0,35.0,-100.00,SE,135,2.0,5.0,84,0.00,,,0.01,13.000000,,2013-08-31 15:55:00,
2013-08-31 08:04:00,39.0,35.0,-100.00,SE,135,2.0,5.0,84,0.00,,,0.01,13.000000,,2013-08-31 16:04:00,
2013-08-31 08:13:00,39.0,35.0,-100.00,SE,135,2.0,5.0,84,0.00,,,0.01,13.000000,,2013-08-31 16:13:00,
2013-08-31 08:52:00,40.0,39.0,-100.00,NNW,332,2.0,4.0,98,0.00,,,0.00,40.000000,,2013-08-31 16:52:00,
2013-08-31 09:03:00,40.0,39.0,-100.00,NNW,332,2.0,4.0,98,0.00,,,0.00,40.000000,,2013-08-31 17:03:00,
2013-08-31 09:12:00,40.0,39.0,-100.00,NNW,332,2.0,4.0,98,0.00,,,0.00,40.000000,,2013-08-31 17:12:00,
2013-08-31 09:23:00,40.0,39.0,-100.00,NNW,332,2.0,4.0,98,0.00,,,0.00,40.000000,,2013-08-31 17:23:00,
2013-08-31 09:53:00,42.0,39.0,-100.00,North,6,3.0,4.0,88,0.00,,,0.00,85.000000,,2013-08-31 17:53:00,
2013-08-31 10:02:00,42.0,39.0,-100.00,North,6,3.0,4.0,88,0.00,,,0.00,85.000000,,2013-08-31 18:02:00,
2013-08-31 10:12:00,42.0,39.0,-100.00,North,6,3.0,4.0,88,0.00,,,0.00,85.000000,,2013-08-31 18:12:00,
2013-08-31 10:21:00,42.0,39.0,-100.00,North,6,3.0,4.0,88,0.00,,,0.00,85.000000,,2013-08-31 18:21:00,
2013-08-31 10:52:00,45.0,36.0,-100.00,East,91,2.0,4.0,71,0.00,,,0.00,137.000000,,2013-08-31 18:52:00,
2013-08-31 11:01:00,45.0,36.0,-100.00,East,91,2.0,4.0,71,0.00,,,0.00,137.000000,,2013-08-31 19:01:00,
2013-08-31 11:12:00,45.0,36.0,-100.00,East,91,2.0,4.0,71,0.00,,,0.00,137.000000,,2013-08-31 19:12:00,
2013-08-31 11:21:00,45.0,36.0,-100.00,East,91,2.0,4.0,71,0.00,,,0.00,137.000000,,2013-08-31 19:21:00,
2013-08-31 11:52:00,45.0,37.0,-100.00,SSW,196,3.0,6.0,74,0.00,,,0.00,173.000000,,2013-08-31 19:52:00,
2013-08-31 12:02:00,45.0,37.0,-100.00,SSW,196,3.0,6.0,74,0.00,,,0.00,173.000000,,2013-08-31 20:02:00,
2013-08-31 12:12:00,45.0,37.0,-100.00,SSW,196,3.0,6.0,74,0.00,,,0.00,173.000000,,2013-08-31 20:12:00,
2013-08-31 12:22:00,45.0,37.0,-100.00,SSW,196,3.0,6.0,74,0.00,,,0.00,173.000000,,2013-08-31 20:22:00,
2013-08-31 12:52:00,48.0,35.0,-100.00,WSW,257,3.0,5.0,61,0.00,,,0.00,275.000000,,2013-08-31 20:52:00,
2013-08-31 13:02:00,48.0,35.0,-100.00,WSW,257,3.0,5.0,61,0.00,,,0.00,275.000000,,2013-08-31 21:02:00,
2013-08-31 13:12:00,48.0,35.0,-100.00,WSW,257,3.0,5.0,61,0.00,,,0.00,275.000000,,2013-08-31 21:12:00,
2013-08-31 13:22:00,48.0,35.0,-100.00,WSW,257,3.0,5.0,61,0.00,,,0.00,275.000000,,2013-08-31 21:22:00,
2013-08-31 13:54:00,49.0,33.0,-100.00,NW,313,3.0,6.0,53,0.00,,,0.00,341.000000,,2013-08-31 21:54:00,
2013-08-31 14:04:00,49.0,33.0,-100.00,NW,313,3.0,6.0,53,0.00,,,0.00,341.000000,,2013-08-31 22:04:00,
2013-08-31 14:13:00,49.0,33.0,-100.00,NW,313,3.0,6.0,53,0.00,,,0.00,341.000000,,2013-08-31 22:13:00,
2013-08-31 14:23:00,49.0,33.0,-100.00,NW,313,3.0,6.0,53,0.00,,,0.00,341.000000,,2013-08-31 22:23:00,
2013-08-31 14:53:00,52.0,32.0,-100.00,WSW,255,4.0,9.0,46,0.00,,,0.00,458.000000,,2013-08-31 22:53:00,
2013-08-31 15:03:00,52.0,32.0,-100.00,WSW,255,4.0,9.0,46,0.00,,,0.00,458.000000,,2013-08-31 23:03:00,
2013-08-31 15:12:00,52.0,32.0,-100.00,WSW,255,4.0,9.0,46,0.00,,,0.00,458.000000,,2013-08-31 23:12:00,
2013-08-31 15:22:00,52.0,32.0,-100.00,WSW,255,4.0,9.0,46,0.00,,,0.00,458.000000,,2013-08-31 23:22:00,
2013-08-31 15:52:00,54.0,31.0,-100.00,SW,221,4.0,21.0,42,0.00,,,0.00,543.000000,,2013-08-31 23:52:00,
2013-08-31 16:01:00,54.0,31.0,-100.00,SW,221,4.0,21.0,42,0.00,,,0.00,543.000000,,2013-09-01 00:01:00,
2013-08-31 16:11:00,54.0,31.0,-100.00,SW,221,4.0,21.0,42,0.00,,,0.00,543.000000,,2013-09-01 00:11:00,
2013-08-31 16:21:00,54.0,31.0,-100.00,SW,221,4.0,21.0,42,0.00,,,0.00,543.000000,,2013-09-01 00:21:00,
2013-08-31 16:52:00,51.0,29.0,-100.00,SSW,205,5.0,8.0,42,0.00,,,0.00,354.000000,,2013-09-01 00:52:00,
2013-08-31 17:02:00,51.0,29.0,-100.00,SSW,205,5.0,8.0,42,0.00,,,0.00,354.000000,,2013-09-01 01:02:00,
2013-08-31 17:11:00,51.0,29.0,-100.00,SSW,205,5.0,8.0,42,0.00,,,0.00,354.000000,,2013-09-01 01:11:00,
2013-08-31 17:21:00,51.0,29.0,-100.00,SSW,205,5.0,8.0,42,0.00,,,0.00,354.000000,,2013-09-01 01:21:00,
2013-08-31 17:52:00,50.0,31.0,-100.00,SW,229,3.0,6.0,47,0.00,,,0.00,184.000000,,2013-09-01 01:52:00,
2013-08-31 18:02:00,50.0,31.0,-100.00,SW,229,3.0,6.0,47,0.00,,,0.00,184.000000,,2013-09-01 02:02:00,
2013-08-31 18:12:00,50.0,31.0,-100.00,SW,229,3.0,6.0,47,0.00,,,0.00,184.000000,,2013-09-01 02:12:00,
2013-08-31 18:22:00,50.0,31.0,-100.00,SW,229,3.0,6.0,47,0.00,,,0.00,184.000000,,2013-09-01 02:22:00,
2013-08-31 18:53:00,49.0,34.0,-100.00,SW,219,2.0,6.0,57,0.00,,,0.00,139.000000,,2013-09-01 02:53:00,
2013-08-31 19:02:00,49.0,34.0,-100.00,SW,219,2.0,6.0,57,0.00,,,0.00,139.000000,,2013-09-01 03:02:00,
2013-08-31 19:12:00,49.0,34.0,-100.00,SW,219,2.0,6.0,57,0.00,,,0.00,139.000000,,2013-09-01 03:12:00,
2013-08-31 19:22:00,49.0,34.0,-100.00,SW,219,2.0,6.0,57,0.00,,,0.00,139.000000,,2013-09-01 03:22:00,
2013-08-31 19:54:00,49.0,38.0,-100.00,South,187,3.0,5.0,65,0.00,,,0.00,93.000000,,2013-09-01 03:54:00,
2013-08-31 20:03:00,-999.0,-99.9,-100.00,South,187,3.0,5.0,-999,-99.99,,,-99.99,93.000000,,2013-09-01 04:03:00,
2013-08-31 20:14:00,49.0,38.0,-100.00,South,187,3.0,5.0,65,0.00,,,0.00,93.000000,,2013-09-01 04:14:00,
2013-08-31 20:24:00,49.0,38.0,-100.00,South,187,3.0,5.0,65,0.00,,,0.00,93.000000,,2013-09-01 04:24:00,
2013-08-31 20:54:00,46.0,40.0,-100.00,South,175,3.0,4.0,80,0.00,,,0.00,50.000000,,2013-09-01 04:54:00,
2013-08-31 21:03:00,46.0,40.0,-100.00,South,175,3.0,4.0,80,0.00,,,0.00,50.000000,,2013-09-01 05:03:00,
2013-08-31 21:12:00,46.0,40.0,-100.00,South,175,3.0,4.0,80,0.00,,,0.00,50.000000,,2013-09-01 05:12:00,
2013-08-31 21:22:00,46.0,40.0,-100.00,South,175,3.0,4.0,80,0.00,,,0.00,50.000000,,2013-09-01 05:22:00,
2013-08-31 21:52:00,42.0,42.0,-100.00,East,94,0.0,2.0,99,0.00,,,0.00,8.000000,,2013-09-01 05:52:00,
2013-08-31 22:02:00,42.0,42.0,-100.00,East,94,0.0,2.0,99,0.00,,,0.00,8.000000,,2013-09-01 06:02:00,
2013-08-31 22:12:00,42.0,42.0,-100.00,East,94,0.0,2.0,99,0.00,,,0.00,8.000000,,2013-09-01 06:12:00,
2013-08-31 22:22:00,42.0,42.0,-100.00,East,94,0.0,2.0,99,0.00,,,0.00,8.000000,,2013-09-01 06:22:00,
2013-08-31 22:52:00,39.0,39.0,-100.00,ENE,67,2.0,3.0,100,0.00,,,0.00,1.000000,,2013-09-01 06:52:00,
2013-08-31 23:02:00,39.0,39.0,-100.00,ENE,67,2.0,3.0,100,0.00,,,0.00,1.000000,,2013-09-01 07:02:00,
2013-08-31 23:12:00,39.0,39.0,-100.00,ENE,67,2.0,3.0,100,0.00,,,0.00,1.000000,,2013-09-01 07:12:00,
2013-08-31 23:22:00,39.0,39.0,-100.00,ENE,67,2.0,3.0,100,0.00,,,0.00,1.000000,,2013-09-01 07:22:00,
2013-08-31 23:52:00,37.0,37.0,-100.00,ENE,77,4.0,5.0,100,0.00,,,0.00,0.000000,,2013-09-01 07:52:00,